Shep, Texas
Current Conditions -  °F | °C
As of 7:58 AM on Saturday 22 Nov 2014 (Local Time) from KDYS Reporting Station
Scattered Clouds Scattered Clouds  
Wind Chill: 62°   Ceiling: Unl
Heat Index: 62°   Visibility: 10mi
Dew Point: 59°   Wind: 9mph
Humidity: 90%   Direction: 150°SSE
Pressure: 29.95"   Gusts: NA
Location:  32.0181°N, 100.153°W
Report Text: KDYS 221358Z AUTO 15008KT 10SM FEW011 SCT030 SCT100 SCT140 17/15 A2995 RMK AO2 SLP120 T01680152 $
Loading
Personal Weather Stations






























Interactive Weather Map New forecast layout! Learn more

10-Day Weather Forecast

Advertisements
Track Severe Weather on mobile